sensor_id;sensor_type;location;lat;lon;timestamp;P1;durP1;ratioP1;P2;durP2;ratioP2
34317;SDS011;20582;52.196;20.952;2024-03-02T00:01:07;64.65;;;32.88;;
34317;SDS011;20582;52.196;20.952;2024-03-02T00:03:33;63.10;;;33.67;;
34317;SDS011;20582;52.196;20.952;2024-03-02T00:05:59;62.88;;;33.53;;
34317;SDS011;20582;52.196;20.952;2024-03-02T00:08:25;63.17;;;32.08;;
34317;SDS011;20582;52.196;20.952;2024-03-02T00:10:51;64.05;;;31.02;;
34317;SDS011;20582;52.196;20.952;2024-03-02T00:13:19;61.75;;;33.10;;
34317;SDS011;20582;52.196;20.952;2024-03-02T00:15:48;59.83;;;31.27;;
34317;SDS011;20582;52.196;20.952;2024-03-02T00:18:19;58.60;;;29.98;;
34317;SDS011;20582;52.196;20.952;2024-03-02T00:20:45;67.00;;;31.75;;
34317;SDS011;20582;52.196;20.952;2024-03-02T00:23:14;59.50;;;29.92;;
34317;SDS011;20582;52.196;20.952;2024-03-02T00:28:19;64.13;;;32.90;;
34317;SDS011;20582;52.196;20.952;2024-03-02T00:33:30;61.15;;;30.27;;
34317;SDS011;20582;52.196;20.952;2024-03-02T00:35:57;60.63;;;31.90;;
34317;SDS011;20582;52.196;20.952;2024-03-02T00:38:24;62.08;;;32.25;;
34317;SDS011;20582;52.196;20.952;2024-03-02T00:40:50;59.65;;;31.98;;
34317;SDS011;20582;52.196;20.952;2024-03-02T00:46:02;59.60;;;29.92;;
34317;SDS011;20582;52.196;20.952;2024-03-02T00:48:28;56.72;;;30.75;;
34317;SDS011;20582;52.196;20.952;2024-03-02T00:50:56;66.03;;;32.97;;
34317;SDS011;20582;52.196;20.952;2024-03-02T00:53:23;61.63;;;32.53;;
34317;SDS011;20582;52.196;20.952;2024-03-02T00:55:49;60.70;;;32.33;;
34317;SDS011;20582;52.196;20.952;2024-03-02T00:58:15;62.80;;;31.70;;
34317;SDS011;20582;52.196;20.952;2024-03-02T01:00:42;62.72;;;32.30;;
34317;SDS011;20582;52.196;20.952;2024-03-02T01:03:08;62.08;;;30.13;;
34317;SDS011;20582;52.196;20.952;2024-03-02T01:05:35;59.22;;;32.88;;
34317;SDS011;20582;52.196;20.952;2024-03-02T01:08:01;57.45;;;30.67;;
34317;SDS011;20582;52.196;20.952;2024-03-02T01:10:27;59.85;;;31.67;;
34317;SDS011;20582;52.196;20.952;2024-03-02T01:12:53;60.35;;;31.48;;
34317;SDS011;20582;52.196;20.952;2024-03-02T01:15:19;56.53;;;30.80;;
34317;SDS011;20582;52.196;20.952;2024-03-02T01:17:45;65.30;;;32.75;;
34317;SDS011;20582;52.196;20.952;2024-03-02T01:20:11;62.20;;;30.75;;
34317;SDS011;20582;52.196;20.952;2024-03-02T01:22:37;63.63;;;30.92;;
34317;SDS011;20582;52.196;20.952;2024-03-02T01:25:03;64.88;;;31.60;;
34317;SDS011;20582;52.196;20.952;2024-03-02T01:27:30;60.05;;;32.25;;
34317;SDS011;20582;52.196;20.952;2024-03-02T01:29:55;60.53;;;32.05;;
34317;SDS011;20582;52.196;20.952;2024-03-02T01:32:21;62.72;;;31.17;;
34317;SDS011;20582;52.196;20.952;2024-03-02T01:34:47;57.58;;;31.17;;
34317;SDS011;20582;52.196;20.952;2024-03-02T01:37:13;59.50;;;32.72;;
34317;SDS011;20582;52.196;20.952;2024-03-02T01:39:39;68.38;;;31.98;;
34317;SDS011;20582;52.196;20.952;2024-03-02T01:42:05;59.33;;;31.38;;
34317;SDS011;20582;52.196;20.952;2024-03-02T01:44:31;53.80;;;28.83;;
34317;SDS011;20582;52.196;20.952;2024-03-02T01:46:57;59.83;;;30.73;;
34317;SDS011;20582;52.196;20.952;2024-03-02T01:49:23;64.53;;;31.95;;
34317;SDS011;20582;52.196;20.952;2024-03-02T01:51:49;63.45;;;32.33;;
34317;SDS011;20582;52.196;20.952;2024-03-02T01:54:15;62.40;;;31.05;;
34317;SDS011;20582;52.196;20.952;2024-03-02T01:56:41;66.32;;;32.97;;
34317;SDS011;20582;52.196;20.952;2024-03-02T01:59:07;59.92;;;31.05;;
34317;SDS011;20582;52.196;20.952;2024-03-02T02:01:33;59.88;;;31.55;;
34317;SDS011;20582;52.196;20.952;2024-03-02T02:03:59;64.20;;;31.50;;
34317;SDS011;20582;52.196;20.952;2024-03-02T02:06:25;61.78;;;30.33;;
34317;SDS011;20582;52.196;20.952;2024-03-02T02:08:51;58.92;;;31.15;;
34317;SDS011;20582;52.196;20.952;2024-03-02T02:11:17;62.97;;;32.00;;
34317;SDS011;20582;52.196;20.952;2024-03-02T02:13:43;63.40;;;32.13;;
34317;SDS011;20582;52.196;20.952;2024-03-02T02:16:09;62.20;;;31.58;;
34317;SDS011;20582;52.196;20.952;2024-03-02T02:18:35;62.42;;;31.50;;
34317;SDS011;20582;52.196;20.952;2024-03-02T02:21:02;63.35;;;31.08;;
34317;SDS011;20582;52.196;20.952;2024-03-02T02:23:28;61.08;;;31.75;;
34317;SDS011;20582;52.196;20.952;2024-03-02T02:25:54;61.95;;;31.45;;
34317;SDS011;20582;52.196;20.952;2024-03-02T02:28:20;62.38;;;30.75;;
34317;SDS011;20582;52.196;20.952;2024-03-02T02:30:46;63.15;;;32.10;;
34317;SDS011;20582;52.196;20.952;2024-03-02T02:33:12;59.50;;;31.52;;
34317;SDS011;20582;52.196;20.952;2024-03-02T02:35:38;62.08;;;33.15;;
34317;SDS011;20582;52.196;20.952;2024-03-02T02:38:04;65.40;;;31.83;;
34317;SDS011;20582;52.196;20.952;2024-03-02T02:40:31;63.20;;;32.17;;
34317;SDS011;20582;52.196;20.952;2024-03-02T02:42:58;62.92;;;31.40;;
34317;SDS011;20582;52.196;20.952;2024-03-02T02:45:27;63.67;;;32.28;;
34317;SDS011;20582;52.196;20.952;2024-03-02T02:47:53;58.45;;;30.67;;
34317;SDS011;20582;52.196;20.952;2024-03-02T02:50:19;61.75;;;30.75;;
34317;SDS011;20582;52.196;20.952;2024-03-02T02:52:45;60.50;;;31.80;;
34317;SDS011;20582;52.196;20.952;2024-03-02T02:55:11;65.40;;;32.20;;
34317;SDS011;20582;52.196;20.952;2024-03-02T02:57:41;61.92;;;31.38;;
34317;SDS011;20582;52.196;20.952;2024-03-02T03:00:08;63.33;;;32.70;;
34317;SDS011;20582;52.196;20.952;2024-03-02T03:02:38;62.63;;;32.33;;
34317;SDS011;20582;52.196;20.952;2024-03-02T03:05:06;64.72;;;31.70;;
34317;SDS011;20582;52.196;20.952;2024-03-02T03:07:33;65.05;;;32.33;;
34317;SDS011;20582;52.196;20.952;2024-03-02T03:09:59;59.35;;;31.50;;
34317;SDS011;20582;52.196;20.952;2024-03-02T03:12:26;60.15;;;30.50;;
34317;SDS011;20582;52.196;20.952;2024-03-02T03:14:52;62.95;;;32.47;;
34317;SDS011;20582;52.196;20.952;2024-03-02T03:17:18;61.22;;;30.45;;
34317;SDS011;20582;52.196;20.952;2024-03-02T03:19:44;61.80;;;31.50;;
34317;SDS011;20582;52.196;20.952;2024-03-02T03:22:10;63.67;;;31.00;;
34317;SDS011;20582;52.196;20.952;2024-03-02T03:24:36;61.25;;;30.48;;
34317;SDS011;20582;52.196;20.952;2024-03-02T03:27:02;62.20;;;30.60;;
34317;SDS011;20582;52.196;20.952;2024-03-02T03:29:28;62.20;;;31.70;;
34317;SDS011;20582;52.196;20.952;2024-03-02T03:31:54;56.83;;;29.45;;
34317;SDS011;20582;52.196;20.952;2024-03-02T03:34:20;63.75;;;30.67;;
34317;SDS011;20582;52.196;20.952;2024-03-02T03:36:46;63.38;;;32.10;;
34317;SDS011;20582;52.196;20.952;2024-03-02T03:39:12;63.55;;;32.08;;
34317;SDS011;20582;52.196;20.952;2024-03-02T03:41:38;58.05;;;30.45;;
34317;SDS011;20582;52.196;20.952;2024-03-02T03:44:04;55.58;;;27.77;;
34317;SDS011;20582;52.196;20.952;2024-03-02T03:46:30;60.40;;;29.27;;
34317;SDS011;20582;52.196;20.952;2024-03-02T03:48:56;56.65;;;29.33;;
34317;SDS011;20582;52.196;20.952;2024-03-02T03:51:22;59.63;;;28.50;;
34317;SDS011;20582;52.196;20.952;2024-03-02T03:53:48;56.70;;;29.13;;
34317;SDS011;20582;52.196;20.952;2024-03-02T03:56:14;57.47;;;28.83;;
34317;SDS011;20582;52.196;20.952;2024-03-02T03:58:40;57.80;;;28.15;;
34317;SDS011;20582;52.196;20.952;2024-03-02T04:01:06;54.42;;;28.23;;
34317;SDS011;20582;52.196;20.952;2024-03-02T04:03:33;56.85;;;28.50;;
34317;SDS011;20582;52.196;20.952;2024-03-02T04:05:59;59.90;;;28.77;;
34317;SDS011;20582;52.196;20.952;2024-03-02T04:08:25;57.65;;;28.95;;
34317;SDS011;20582;52.196;20.952;2024-03-02T04:10:51;51.28;;;25.67;;
34317;SDS011;20582;52.196;20.952;2024-03-02T04:13:17;58.70;;;28.27;;
34317;SDS011;20582;52.196;20.952;2024-03-02T04:15:43;57.70;;;29.27;;
34317;SDS011;20582;52.196;20.952;2024-03-02T04:18:09;55.83;;;27.08;;
34317;SDS011;20582;52.196;20.952;2024-03-02T04:20:35;55.63;;;28.90;;
34317;SDS011;20582;52.196;20.952;2024-03-02T04:23:01;60.40;;;29.67;;
34317;SDS011;20582;52.196;20.952;2024-03-02T04:25:26;55.45;;;28.65;;
34317;SDS011;20582;52.196;20.952;2024-03-02T04:27:52;62.05;;;29.30;;
34317;SDS011;20582;52.196;20.952;2024-03-02T04:30:18;60.20;;;28.77;;
34317;SDS011;20582;52.196;20.952;2024-03-02T04:32:45;64.30;;;31.20;;
34317;SDS011;20582;52.196;20.952;2024-03-02T04:35:14;58.05;;;28.83;;
34317;SDS011;20582;52.196;20.952;2024-03-02T04:37:40;60.28;;;29.95;;
34317;SDS011;20582;52.196;20.952;2024-03-02T04:40:06;61.28;;;29.42;;
34317;SDS011;20582;52.196;20.952;2024-03-02T04:42:35;59.38;;;29.90;;
34317;SDS011;20582;52.196;20.952;2024-03-02T04:45:01;65.90;;;30.85;;
34317;SDS011;20582;52.196;20.952;2024-03-02T04:47:28;57.78;;;29.17;;
34317;SDS011;20582;52.196;20.952;2024-03-02T04:49:54;65.82;;;31.40;;
34317;SDS011;20582;52.196;20.952;2024-03-02T04:52:20;58.38;;;28.83;;
34317;SDS011;20582;52.196;20.952;2024-03-02T04:54:46;60.75;;;30.98;;
34317;SDS011;20582;52.196;20.952;2024-03-02T04:57:30;62.28;;;29.65;;
34317;SDS011;20582;52.196;20.952;2024-03-02T04:59:57;62.38;;;29.95;;
34317;SDS011;20582;52.196;20.952;2024-03-02T05:02:23;60.42;;;28.55;;
34317;SDS011;20582;52.196;20.952;2024-03-02T05:04:49;57.20;;;27.55;;
34317;SDS011;20582;52.196;20.952;2024-03-02T05:07:15;65.05;;;29.33;;
34317;SDS011;20582;52.196;20.952;2024-03-02T05:09:41;61.08;;;30.08;;
34317;SDS011;20582;52.196;20.952;2024-03-02T05:12:07;60.60;;;29.50;;
34317;SDS011;20582;52.196;20.952;2024-03-02T05:14:36;61.10;;;29.50;;
34317;SDS011;20582;52.196;20.952;2024-03-02T05:17:03;60.78;;;29.88;;
34317;SDS011;20582;52.196;20.952;2024-03-02T05:19:29;53.28;;;27.30;;
34317;SDS011;20582;52.196;20.952;2024-03-02T05:21:55;56.55;;;28.08;;
34317;SDS011;20582;52.196;20.952;2024-03-02T05:24:21;54.17;;;27.55;;
34317;SDS011;20582;52.196;20.952;2024-03-02T05:26:47;57.13;;;27.27;;
34317;SDS011;20582;52.196;20.952;2024-03-02T05:29:14;60.33;;;27.33;;
34317;SDS011;20582;52.196;20.952;2024-03-02T05:31:40;56.63;;;27.67;;
34317;SDS011;20582;52.196;20.952;2024-03-02T05:34:06;59.22;;;28.70;;
34317;SDS011;20582;52.196;20.952;2024-03-02T05:36:32;57.35;;;27.05;;
34317;SDS011;20582;52.196;20.952;2024-03-02T05:38:58;56.60;;;26.33;;
34317;SDS011;20582;52.196;20.952;2024-03-02T05:41:24;56.28;;;26.48;;
34317;SDS011;20582;52.196;20.952;2024-03-02T05:43:50;55.45;;;27.05;;
34317;SDS011;20582;52.196;20.952;2024-03-02T05:46:16;55.70;;;27.15;;
34317;SDS011;20582;52.196;20.952;2024-03-02T05:48:42;57.13;;;27.40;;
34317;SDS011;20582;52.196;20.952;2024-03-02T05:51:08;52.10;;;25.98;;
34317;SDS011;20582;52.196;20.952;2024-03-02T05:53:34;55.17;;;26.58;;
34317;SDS011;20582;52.196;20.952;2024-03-02T05:56:03;52.45;;;26.05;;
34317;SDS011;20582;52.196;20.952;2024-03-02T05:58:29;54.90;;;26.10;;
34317;SDS011;20582;52.196;20.952;2024-03-02T06:01:14;53.28;;;25.95;;
34317;SDS011;20582;52.196;20.952;2024-03-02T06:03:40;52.67;;;26.70;;
34317;SDS011;20582;52.196;20.952;2024-03-02T06:06:06;53.30;;;26.35;;
34317;SDS011;20582;52.196;20.952;2024-03-02T06:08:32;55.90;;;27.05;;
34317;SDS011;20582;52.196;20.952;2024-03-02T06:10:58;56.40;;;26.98;;
34317;SDS011;20582;52.196;20.952;2024-03-02T06:13:25;48.65;;;25.35;;
34317;SDS011;20582;52.196;20.952;2024-03-02T06:15:51;53.10;;;25.15;;
34317;SDS011;20582;52.196;20.952;2024-03-02T06:18:17;53.15;;;25.17;;
34317;SDS011;20582;52.196;20.952;2024-03-02T06:20:43;51.78;;;26.00;;
34317;SDS011;20582;52.196;20.952;2024-03-02T06:23:09;51.00;;;24.98;;
34317;SDS011;20582;52.196;20.952;2024-03-02T06:25:35;50.05;;;25.92;;
34317;SDS011;20582;52.196;20.952;2024-03-02T06:28:01;50.95;;;24.48;;
34317;SDS011;20582;52.196;20.952;2024-03-02T06:30:27;52.85;;;27.65;;
34317;SDS011;20582;52.196;20.952;2024-03-02T06:32:53;49.10;;;24.90;;
34317;SDS011;20582;52.196;20.952;2024-03-02T06:35:19;50.72;;;25.73;;
34317;SDS011;20582;52.196;20.952;2024-03-02T06:37:45;49.38;;;25.88;;
34317;SDS011;20582;52.196;20.952;2024-03-02T06:40:11;49.92;;;25.52;;
34317;SDS011;20582;52.196;20.952;2024-03-02T06:42:37;51.20;;;25.52;;
34317;SDS011;20582;52.196;20.952;2024-03-02T06:45:03;54.20;;;25.15;;
34317;SDS011;20582;52.196;20.952;2024-03-02T06:47:30;48.70;;;24.33;;
34317;SDS011;20582;52.196;20.952;2024-03-02T06:49:56;47.63;;;23.15;;
34317;SDS011;20582;52.196;20.952;2024-03-02T06:52:23;46.15;;;23.63;;
34317;SDS011;20582;52.196;20.952;2024-03-02T06:54:49;46.47;;;22.33;;
34317;SDS011;20582;52.196;20.952;2024-03-02T06:57:15;46.97;;;24.10;;
34317;SDS011;20582;52.196;20.952;2024-03-02T06:59:42;50.30;;;23.55;;
34317;SDS011;20582;52.196;20.952;2024-03-02T07:02:08;51.00;;;24.20;;
34317;SDS011;20582;52.196;20.952;2024-03-02T07:04:34;44.42;;;22.42;;
34317;SDS011;20582;52.196;20.952;2024-03-02T07:07:00;46.85;;;22.42;;
34317;SDS011;20582;52.196;20.952;2024-03-02T07:09:26;45.53;;;23.05;;
34317;SDS011;20582;52.196;20.952;2024-03-02T07:11:52;44.63;;;22.70;;
34317;SDS011;20582;52.196;20.952;2024-03-02T07:14:18;42.95;;;23.35;;
34317;SDS011;20582;52.196;20.952;2024-03-02T07:16:44;44.20;;;21.88;;
34317;SDS011;20582;52.196;20.952;2024-03-02T07:19:10;46.75;;;23.35;;
34317;SDS011;20582;52.196;20.952;2024-03-02T07:21:36;44.50;;;23.42;;
34317;SDS011;20582;52.196;20.952;2024-03-02T07:24:02;42.95;;;22.40;;
34317;SDS011;20582;52.196;20.952;2024-03-02T07:26:29;42.83;;;21.65;;
34317;SDS011;20582;52.196;20.952;2024-03-02T07:28:56;41.35;;;21.38;;
34317;SDS011;20582;52.196;20.952;2024-03-02T07:31:22;43.08;;;20.92;;
34317;SDS011;20582;52.196;20.952;2024-03-02T07:33:48;43.60;;;21.02;;
34317;SDS011;20582;52.196;20.952;2024-03-02T07:36:14;40.80;;;20.80;;
34317;SDS011;20582;52.196;20.952;2024-03-02T07:38:40;41.92;;;20.55;;
34317;SDS011;20582;52.196;20.952;2024-03-02T07:41:07;41.83;;;20.88;;
34317;SDS011;20582;52.196;20.952;2024-03-02T07:43:33;43.95;;;20.38;;
34317;SDS011;20582;52.196;20.952;2024-03-02T07:45:59;40.03;;;19.63;;
34317;SDS011;20582;52.196;20.952;2024-03-02T07:48:25;46.58;;;21.65;;
34317;SDS011;20582;52.196;20.952;2024-03-02T07:50:52;41.58;;;19.98;;
34317;SDS011;20582;52.196;20.952;2024-03-02T07:53:18;45.90;;;21.92;;
34317;SDS011;20582;52.196;20.952;2024-03-02T07:55:43;41.78;;;21.48;;
34317;SDS011;20582;52.196;20.952;2024-03-02T07:58:09;41.65;;;21.02;;
34317;SDS011;20582;52.196;20.952;2024-03-02T08:00:37;41.42;;;20.17;;
34317;SDS011;20582;52.196;20.952;2024-03-02T08:03:04;40.92;;;20.02;;
34317;SDS011;20582;52.196;20.952;2024-03-02T08:05:30;43.33;;;21.52;;
34317;SDS011;20582;52.196;20.952;2024-03-02T08:07:56;44.65;;;21.15;;
34317;SDS011;20582;52.196;20.952;2024-03-02T08:10:22;41.67;;;19.98;;
34317;SDS011;20582;52.196;20.952;2024-03-02T08:12:48;42.10;;;21.48;;
34317;SDS011;20582;52.196;20.952;2024-03-02T08:15:14;43.50;;;21.52;;
34317;SDS011;20582;52.196;20.952;2024-03-02T08:17:40;44.53;;;22.25;;
34317;SDS011;20582;52.196;20.952;2024-03-02T08:20:14;45.33;;;19.80;;
34317;SDS011;20582;52.196;20.952;2024-03-02T08:22:40;42.80;;;21.17;;
34317;SDS011;20582;52.196;20.952;2024-03-02T08:25:07;42.80;;;22.10;;
34317;SDS011;20582;52.196;20.952;2024-03-02T08:27:33;42.47;;;22.90;;
34317;SDS011;20582;52.196;20.952;2024-03-02T08:29:59;42.65;;;20.67;;
34317;SDS011;20582;52.196;20.952;2024-03-02T08:32:25;42.92;;;21.67;;
34317;SDS011;20582;52.196;20.952;2024-03-02T08:34:51;44.33;;;22.60;;
34317;SDS011;20582;52.196;20.952;2024-03-02T08:37:17;41.40;;;20.58;;
34317;SDS011;20582;52.196;20.952;2024-03-02T08:39:44;42.45;;;21.40;;
34317;SDS011;20582;52.196;20.952;2024-03-02T08:42:10;41.97;;;21.80;;
34317;SDS011;20582;52.196;20.952;2024-03-02T08:44:36;44.15;;;21.23;;
34317;SDS011;20582;52.196;20.952;2024-03-02T08:47:02;43.55;;;21.17;;
34317;SDS011;20582;52.196;20.952;2024-03-02T08:49:29;44.38;;;23.08;;
34317;SDS011;20582;52.196;20.952;2024-03-02T08:51:54;44.40;;;21.17;;
34317;SDS011;20582;52.196;20.952;2024-03-02T08:54:21;48.58;;;23.20;;
34317;SDS011;20582;52.196;20.952;2024-03-02T08:56:50;46.97;;;23.60;;
34317;SDS011;20582;52.196;20.952;2024-03-02T08:59:16;44.58;;;22.63;;
34317;SDS011;20582;52.196;20.952;2024-03-02T09:01:42;46.28;;;23.38;;
34317;SDS011;20582;52.196;20.952;2024-03-02T09:04:08;48.22;;;22.30;;
34317;SDS011;20582;52.196;20.952;2024-03-02T09:06:34;45.08;;;22.20;;
34317;SDS011;20582;52.196;20.952;2024-03-02T09:09:00;40.38;;;21.00;;
34317;SDS011;20582;52.196;20.952;2024-03-02T09:11:26;44.75;;;22.08;;
34317;SDS011;20582;52.196;20.952;2024-03-02T09:13:52;46.13;;;22.17;;
34317;SDS011;20582;52.196;20.952;2024-03-02T09:16:19;45.28;;;23.05;;
34317;SDS011;20582;52.196;20.952;2024-03-02T09:18:46;43.25;;;22.23;;
34317;SDS011;20582;52.196;20.952;2024-03-02T09:21:12;43.05;;;22.13;;
34317;SDS011;20582;52.196;20.952;2024-03-02T09:23:38;46.90;;;21.20;;
34317;SDS011;20582;52.196;20.952;2024-03-02T09:26:05;44.92;;;21.73;;
34317;SDS011;20582;52.196;20.952;2024-03-02T09:28:31;43.33;;;21.98;;
34317;SDS011;20582;52.196;20.952;2024-03-02T09:30:57;40.25;;;20.73;;
34317;SDS011;20582;52.196;20.952;2024-03-02T09:33:23;40.58;;;21.15;;
34317;SDS011;20582;52.196;20.952;2024-03-02T09:35:49;46.83;;;22.20;;
34317;SDS011;20582;52.196;20.952;2024-03-02T09:38:15;45.03;;;22.20;;
34317;SDS011;20582;52.196;20.952;2024-03-02T09:40:41;43.03;;;22.15;;
34317;SDS011;20582;52.196;20.952;2024-03-02T09:43:08;41.65;;;21.13;;
34317;SDS011;20582;52.196;20.952;2024-03-02T09:45:34;43.60;;;21.20;;
34317;SDS011;20582;52.196;20.952;2024-03-02T09:48:00;45.25;;;21.70;;
34317;SDS011;20582;52.196;20.952;2024-03-02T09:50:26;40.13;;;20.27;;
34317;SDS011;20582;52.196;20.952;2024-03-02T09:52:52;41.17;;;21.60;;
34317;SDS011;20582;52.196;20.952;2024-03-02T09:55:19;42.83;;;21.05;;
34317;SDS011;20582;52.196;20.952;2024-03-02T09:57:46;41.67;;;19.92;;
34317;SDS011;20582;52.196;20.952;2024-03-02T10:00:13;43.90;;;21.23;;
34317;SDS011;20582;52.196;20.952;2024-03-02T10:02:40;41.95;;;20.02;;
34317;SDS011;20582;52.196;20.952;2024-03-02T10:05:07;41.25;;;19.95;;
34317;SDS011;20582;52.196;20.952;2024-03-02T10:07:33;40.83;;;19.52;;
34317;SDS011;20582;52.196;20.952;2024-03-02T10:10:00;36.60;;;18.40;;
34317;SDS011;20582;52.196;20.952;2024-03-02T10:12:37;37.70;;;18.90;;
34317;SDS011;20582;52.196;20.952;2024-03-02T10:15:03;38.25;;;18.90;;
34317;SDS011;20582;52.196;20.952;2024-03-02T10:17:31;37.42;;;20.05;;
34317;SDS011;20582;52.196;20.952;2024-03-02T10:19:57;37.55;;;19.88;;
34317;SDS011;20582;52.196;20.952;2024-03-02T10:22:23;38.95;;;20.98;;
34317;SDS011;20582;52.196;20.952;2024-03-02T10:24:49;36.17;;;19.92;;
34317;SDS011;20582;52.196;20.952;2024-03-02T10:27:23;37.63;;;18.77;;
34317;SDS011;20582;52.196;20.952;2024-03-02T10:29:49;40.42;;;19.85;;
34317;SDS011;20582;52.196;20.952;2024-03-02T10:32:15;38.50;;;20.38;;
34317;SDS011;20582;52.196;20.952;2024-03-02T10:34:42;34.45;;;18.73;;
34317;SDS011;20582;52.196;20.952;2024-03-02T10:37:08;37.88;;;19.33;;
34317;SDS011;20582;52.196;20.952;2024-03-02T10:39:36;38.38;;;19.55;;
34317;SDS011;20582;52.196;20.952;2024-03-02T10:42:03;37.85;;;20.17;;
34317;SDS011;20582;52.196;20.952;2024-03-02T10:44:30;38.60;;;20.75;;
34317;SDS011;20582;52.196;20.952;2024-03-02T10:46:57;40.42;;;19.98;;
34317;SDS011;20582;52.196;20.952;2024-03-02T10:49:26;40.05;;;20.25;;
34317;SDS011;20582;52.196;20.952;2024-03-02T10:51:52;39.78;;;20.58;;
34317;SDS011;20582;52.196;20.952;2024-03-02T10:54:18;34.95;;;19.00;;
34317;SDS011;20582;52.196;20.952;2024-03-02T10:56:50;37.28;;;21.20;;
34317;SDS011;20582;52.196;20.952;2024-03-02T10:59:33;40.63;;;20.25;;
34317;SDS011;20582;52.196;20.952;2024-03-02T11:02:00;37.08;;;21.45;;
34317;SDS011;20582;52.196;20.952;2024-03-02T11:04:27;36.83;;;19.52;;
34317;SDS011;20582;52.196;20.952;2024-03-02T11:06:58;37.72;;;19.98;;
34317;SDS011;20582;52.196;20.952;2024-03-02T11:09:28;35.95;;;21.00;;
34317;SDS011;20582;52.196;20.952;2024-03-02T11:12:02;37.67;;;20.50;;
34317;SDS011;20582;52.196;20.952;2024-03-02T11:14:29;40.95;;;20.45;;
34317;SDS011;20582;52.196;20.952;2024-03-02T11:16:57;43.45;;;21.00;;
34317;SDS011;20582;52.196;20.952;2024-03-02T11:19:23;39.30;;;21.77;;
34317;SDS011;20582;52.196;20.952;2024-03-02T11:21:50;39.40;;;21.35;;
34317;SDS011;20582;52.196;20.952;2024-03-02T11:27:01;39.53;;;21.17;;
34317;SDS011;20582;52.196;20.952;2024-03-02T11:32:26;47.83;;;23.27;;
34317;SDS011;20582;52.196;20.952;2024-03-02T11:34:51;45.05;;;23.30;;
34317;SDS011;20582;52.196;20.952;2024-03-02T11:37:18;41.40;;;22.90;;
34317;SDS011;20582;52.196;20.952;2024-03-02T11:39:48;42.10;;;22.13;;
34317;SDS011;20582;52.196;20.952;2024-03-02T11:42:14;43.25;;;23.25;;
34317;SDS011;20582;52.196;20.952;2024-03-02T11:44:42;39.08;;;22.35;;
34317;SDS011;20582;52.196;20.952;2024-03-02T11:47:08;42.38;;;23.05;;
34317;SDS011;20582;52.196;20.952;2024-03-02T11:49:36;39.90;;;23.60;;
34317;SDS011;20582;52.196;20.952;2024-03-02T11:52:03;43.35;;;23.90;;
34317;SDS011;20582;52.196;20.952;2024-03-02T11:54:32;37.97;;;23.05;;
34317;SDS011;20582;52.196;20.952;2024-03-02T11:57:04;41.88;;;24.00;;
34317;SDS011;20582;52.196;20.952;2024-03-02T11:59:30;45.45;;;25.83;;
34317;SDS011;20582;52.196;20.952;2024-03-02T12:01:57;43.72;;;25.67;;
34317;SDS011;20582;52.196;20.952;2024-03-02T12:04:23;46.15;;;25.10;;
34317;SDS011;20582;52.196;20.952;2024-03-02T12:06:55;44.42;;;26.27;;
34317;SDS011;20582;52.196;20.952;2024-03-02T12:09:22;41.17;;;26.88;;
34317;SDS011;20582;52.196;20.952;2024-03-02T12:11:48;49.55;;;27.67;;
34317;SDS011;20582;52.196;20.952;2024-03-02T12:14:13;49.55;;;28.17;;
34317;SDS011;20582;52.196;20.952;2024-03-02T12:16:43;46.78;;;28.67;;
34317;SDS011;20582;52.196;20.952;2024-03-02T12:19:09;49.97;;;29.48;;
34317;SDS011;20582;52.196;20.952;2024-03-02T12:21:36;45.95;;;28.77;;
34317;SDS011;20582;52.196;20.952;2024-03-02T12:24:02;52.97;;;29.33;;
34317;SDS011;20582;52.196;20.952;2024-03-02T12:26:28;48.33;;;29.58;;
34317;SDS011;20582;52.196;20.952;2024-03-02T12:28:55;44.70;;;28.92;;
34317;SDS011;20582;52.196;20.952;2024-03-02T12:31:21;48.25;;;30.05;;
34317;SDS011;20582;52.196;20.952;2024-03-02T12:33:47;51.50;;;29.48;;
34317;SDS011;20582;52.196;20.952;2024-03-02T12:36:13;45.40;;;28.83;;
34317;SDS011;20582;52.196;20.952;2024-03-02T12:38:48;52.28;;;29.55;;
34317;SDS011;20582;52.196;20.952;2024-03-02T12:41:18;49.22;;;29.92;;
34317;SDS011;20582;52.196;20.952;2024-03-02T12:43:44;46.95;;;29.52;;
34317;SDS011;20582;52.196;20.952;2024-03-02T12:46:10;53.10;;;30.13;;
34317;SDS011;20582;52.196;20.952;2024-03-02T12:48:36;52.20;;;31.33;;
34317;SDS011;20582;52.196;20.952;2024-03-02T12:51:05;50.33;;;31.00;;
34317;SDS011;20582;52.196;20.952;2024-03-02T12:53:31;53.05;;;30.83;;
34317;SDS011;20582;52.196;20.952;2024-03-02T12:55:57;53.25;;;30.50;;
34317;SDS011;20582;52.196;20.952;2024-03-02T12:58:24;50.92;;;28.98;;
34317;SDS011;20582;52.196;20.952;2024-03-02T13:01:05;54.08;;;30.05;;
34317;SDS011;20582;52.196;20.952;2024-03-02T13:03:31;46.03;;;28.70;;
34317;SDS011;20582;52.196;20.952;2024-03-02T13:05:57;47.00;;;28.27;;
34317;SDS011;20582;52.196;20.952;2024-03-02T13:08:23;46.13;;;28.50;;
34317;SDS011;20582;52.196;20.952;2024-03-02T13:10:49;53.45;;;28.52;;
34317;SDS011;20582;52.196;20.952;2024-03-02T13:13:15;49.67;;;29.35;;
34317;SDS011;20582;52.196;20.952;2024-03-02T13:15:42;51.58;;;29.98;;
34317;SDS011;20582;52.196;20.952;2024-03-02T13:18:08;49.70;;;29.23;;
34317;SDS011;20582;52.196;20.952;2024-03-02T13:20:34;50.75;;;29.55;;
34317;SDS011;20582;52.196;20.952;2024-03-02T13:23:01;46.72;;;28.80;;
34317;SDS011;20582;52.196;20.952;2024-03-02T13:25:27;50.78;;;28.50;;
34317;SDS011;20582;52.196;20.952;2024-03-02T13:27:53;54.80;;;29.70;;
34317;SDS011;20582;52.196;20.952;2024-03-02T13:30:18;45.72;;;28.73;;
34317;SDS011;20582;52.196;20.952;2024-03-02T13:32:45;48.08;;;29.20;;
34317;SDS011;20582;52.196;20.952;2024-03-02T13:35:11;49.50;;;29.23;;
34317;SDS011;20582;52.196;20.952;2024-03-02T13:37:37;47.72;;;29.50;;
34317;SDS011;20582;52.196;20.952;2024-03-02T13:40:03;47.83;;;29.30;;
34317;SDS011;20582;52.196;20.952;2024-03-02T13:42:30;46.78;;;29.27;;
34317;SDS011;20582;52.196;20.952;2024-03-02T13:44:56;46.70;;;29.73;;
34317;SDS011;20582;52.196;20.952;2024-03-02T13:47:22;53.03;;;30.73;;
34317;SDS011;20582;52.196;20.952;2024-03-02T13:49:48;48.83;;;30.33;;
34317;SDS011;20582;52.196;20.952;2024-03-02T13:52:14;49.70;;;30.27;;
34317;SDS011;20582;52.196;20.952;2024-03-02T13:57:11;50.75;;;30.50;;
34317;SDS011;20582;52.196;20.952;2024-03-02T13:59:37;52.45;;;31.05;;
34317;SDS011;20582;52.196;20.952;2024-03-02T14:02:07;52.05;;;30.65;;
34317;SDS011;20582;52.196;20.952;2024-03-02T14:04:33;52.90;;;31.48;;
34317;SDS011;20582;52.196;20.952;2024-03-02T14:07:00;52.38;;;31.33;;
34317;SDS011;20582;52.196;20.952;2024-03-02T14:09:26;54.22;;;30.70;;
34317;SDS011;20582;52.196;20.952;2024-03-02T14:11:52;53.42;;;30.92;;
34317;SDS011;20582;52.196;20.952;2024-03-02T14:14:19;50.40;;;29.45;;
34317;SDS011;20582;52.196;20.952;2024-03-02T14:16:45;53.20;;;30.63;;
34317;SDS011;20582;52.196;20.952;2024-03-02T14:19:11;52.17;;;30.98;;
34317;SDS011;20582;52.196;20.952;2024-03-02T14:21:37;56.92;;;32.75;;